Sultan Atasoy — TCYG9 — position and weather

sailwx.info

Track history (hours):
 
Tides and Currents Weather Stations Pressure Air Temp Water Temp Dewpoint Dewpoint Depression Visibility Wind Speed Wind Dir Waves Ship Positions

Sultan Atasoy

Last reported at 2015-Mar-02 18:22 UTC. Time now 2015-Mar-03 11:11 UTC.
Position N 37°50' E 025°25'.

Length 109 m; draft 6.1 m.

Type: Ship. MMSI: 271040963.

Date/timePositionNaut miles runAvg speedWind from/ knotsBaromVisibWave heightAir tempDewpointWater temp
2015-Mar-02 18:22N 37°50' E 025°25'8 9.8
2015-Mar-02 17:33N 37°42' E 025°22'10 9.8
2015-Mar-02 16:34N 37°33' E 025°17'10 9.9
2015-Mar-02 15:34N 37°26' E 025°08'1110.8
2015-Mar-02 14:34N 37°20' E 024°57'1110.6
2015-Mar-02 13:30N 37°13' E 024°46'49310.1
2015-Feb-28 12:34N 36°40' E 014°30'1111.0
2015-Feb-28 11:34N 36°45' E 014°18'1110.8
2015-Feb-28 10:34N 36°50' E 014°06'1111.0
2015-Feb-28 09:34N 36°55' E 013°54'1111.2
2015-Feb-28 08:33N 36°59' E 013°41'1210.9
2015-Feb-28 07:29N 37°02' E 013°27'25110.3
2015-Feb-27 07:07N 38°22' E 008°25'2211.0
2015-Feb-27 05:06N 38°26' E 007°57'190 9.7
2015-Feb-26 09:30N 39°02' E 003°58'8 8.6
2015-Feb-26 08:33N 39°03' E 003°48'9 8.9
2015-Feb-26 07:33N 39°04' E 003°36'9 8.7
2015-Feb-26 06:33N 39°04' E 003°25'8 8.3
2015-Feb-26 05:34N 39°02' E 003°15'9 9.0
2015-Feb-26 04:33N 38°58' E 003°04'9 9.4
2015-Feb-26 03:34N 38°54' E 002°53'10 9.6
2015-Feb-26 02:34N 38°50' E 002°42'10 9.6
2015-Feb-26 01:33N 38°45' E 002°31'9 9.3
2015-Feb-26 00:33N 38°41' E 002°21'130 9.8
2015-Feb-25 11:22N 37°43' W 000°07'8 9.5
2015-Feb-25 10:33N 37°39' W 000°15'9 9.2
2015-Feb-25 09:34N 37°35' W 000°26'9 8.8
2015-Feb-25 08:33N 37°31' W 000°35'9 9.2
2015-Feb-25 07:33N 37°29' W 000°47'9 9.3
2015-Feb-25 06:33N 37°29' W 000°58'8 0.3
2015-Feb-24 06:18N 37°33' W 001°07'0 0.0
2015-Feb-24 05:06N 37°33' W 001°07'0 0.1
2015-Feb-23 22:25N 37°33' W 001°06'223 9.3
2015-Feb-22 22:34N 35°56' W 005°17'3 2.9
2015-Feb-22 21:33N 35°54' W 005°19'0 0.0
2015-Feb-22 20:33N 35°54' W 005°19'0 0.5
2015-Feb-22 19:34N 35°54' W 005°19'1 1.4
2015-Feb-22 18:34N 35°55' W 005°19'0 0.1
2015-Feb-22 17:32N 35°55' W 005°19'0 0.0
2015-Feb-22 16:32N 35°55' W 005°19'0 0.0
2015-Feb-22 15:32N 35°55' W 005°19'0 0.0
2015-Feb-22 14:32N 35°55' W 005°19'0 0.0
2015-Feb-22 13:32N 35°55' W 005°19'0 0.0
2015-Feb-22 12:32N 35°55' W 005°19'0 0.0
2015-Feb-22 11:33N 35°55' W 005°19'2 1.6
2015-Feb-22 10:34N 35°56' W 005°20'239 9.5
2015-Feb-21 09:29N 37°42' W 009°48'3710.7
2015-Feb-21 06:04N 38°18' W 009°58'611.0
2015-Feb-21 05:33N 38°23' W 010°00'1111.1
2015-Feb-21 04:33N 38°34' W 010°03'1110.7
2015-Feb-21 03:33N 38°44' W 010°05'1010.1
2015-Feb-21 02:34N 38°54' W 010°04'1010.2
2015-Feb-21 01:33N 39°04' W 009°60'1110.5
2015-Feb-21 00:32N 39°14' W 009°55'  
Track history (hours):
 
Tides and Currents Weather Stations Pressure Air Temp Water Temp Dewpoint Dewpoint Depression Visibility Wind Speed Wind Dir Waves Ship Positions

Sultan Atasoy

Last reported at 2015-Mar-02 18:22 UTC. Time now 2015-Mar-03 11:11 UTC.
Position N 37°50' E 025°25'.

Length 109 m; draft 6.1 m.

Type: Ship. MMSI: 271040963.

Date/timePositionNaut miles runAvg speedWind from/ knotsBaromVisibWave heightAir tempDewpointWater temp
2015-Mar-02 18:22N 37°50' E 025°25'8 9.8
2015-Mar-02 17:33N 37°42' E 025°22'10 9.8
2015-Mar-02 16:34N 37°33' E 025°17'10 9.9
2015-Mar-02 15:34N 37°26' E 025°08'1110.8
2015-Mar-02 14:34N 37°20' E 024°57'1110.6
2015-Mar-02 13:30N 37°13' E 024°46'49310.1
2015-Feb-28 12:34N 36°40' E 014°30'1111.0
2015-Feb-28 11:34N 36°45' E 014°18'1110.8
2015-Feb-28 10:34N 36°50' E 014°06'1111.0
2015-Feb-28 09:34N 36°55' E 013°54'1111.2
2015-Feb-28 08:33N 36°59' E 013°41'1210.9
2015-Feb-28 07:29N 37°02' E 013°27'25110.3
2015-Feb-27 07:07N 38°22' E 008°25'2211.0
2015-Feb-27 05:06N 38°26' E 007°57'190 9.7
2015-Feb-26 09:30N 39°02' E 003°58'8 8.6
2015-Feb-26 08:33N 39°03' E 003°48'9 8.9
2015-Feb-26 07:33N 39°04' E 003°36'9 8.7
2015-Feb-26 06:33N 39°04' E 003°25'8 8.3
2015-Feb-26 05:34N 39°02' E 003°15'9 9.0
2015-Feb-26 04:33N 38°58' E 003°04'9 9.4
2015-Feb-26 03:34N 38°54' E 002°53'10 9.6
2015-Feb-26 02:34N 38°50' E 002°42'10 9.6
2015-Feb-26 01:33N 38°45' E 002°31'9 9.3
2015-Feb-26 00:33N 38°41' E 002°21'130 9.8
2015-Feb-25 11:22N 37°43' W 000°07'8 9.5
2015-Feb-25 10:33N 37°39' W 000°15'9 9.2
2015-Feb-25 09:34N 37°35' W 000°26'9 8.8
2015-Feb-25 08:33N 37°31' W 000°35'9 9.2
2015-Feb-25 07:33N 37°29' W 000°47'9 9.3
2015-Feb-25 06:33N 37°29' W 000°58'8 0.3
2015-Feb-24 06:18N 37°33' W 001°07'0 0.0
2015-Feb-24 05:06N 37°33' W 001°07'0 0.1
2015-Feb-23 22:25N 37°33' W 001°06'223 9.3
2015-Feb-22 22:34N 35°56' W 005°17'3 2.9
2015-Feb-22 21:33N 35°54' W 005°19'0 0.0
2015-Feb-22 20:33N 35°54' W 005°19'0 0.5
2015-Feb-22 19:34N 35°54' W 005°19'1 1.4
2015-Feb-22 18:34N 35°55' W 005°19'0 0.1
2015-Feb-22 17:32N 35°55' W 005°19'0 0.0
2015-Feb-22 16:32N 35°55' W 005°19'0 0.0
2015-Feb-22 15:32N 35°55' W 005°19'0 0.0
2015-Feb-22 14:32N 35°55' W 005°19'0 0.0
2015-Feb-22 13:32N 35°55' W 005°19'0 0.0
2015-Feb-22 12:32N 35°55' W 005°19'0 0.0
2015-Feb-22 11:33N 35°55' W 005°19'2 1.6
2015-Feb-22 10:34N 35°56' W 005°20'239 9.5
2015-Feb-21 09:29N 37°42' W 009°48'3710.7
2015-Feb-21 06:04N 38°18' W 009°58'611.0
2015-Feb-21 05:33N 38°23' W 010°00'1111.1
2015-Feb-21 04:33N 38°34' W 010°03'1110.7
2015-Feb-21 03:33N 38°44' W 010°05'1010.1
2015-Feb-21 02:34N 38°54' W 010°04'1010.2
2015-Feb-21 01:33N 39°04' W 009°60'1110.5
2015-Feb-21 00:32N 39°14' W 009°55'  

Dump ship's entire track history